createdAt,value
2022-07-29T00:01:04.832Z,18.80
2022-07-29T00:03:31.944Z,19.33
2022-07-29T00:05:58.996Z,23.05
2022-07-29T00:08:27.950Z,21.12
2022-07-29T00:10:54.975Z,21.52
2022-07-29T00:13:32.493Z,22.42
2022-07-29T00:16:04.520Z,19.25
2022-07-29T00:18:32.791Z,22.75
2022-07-29T00:20:59.878Z,20.23
2022-07-29T00:23:26.836Z,21.75
2022-07-29T00:25:53.815Z,18.80
2022-07-29T00:28:20.971Z,18.83
2022-07-29T00:30:47.992Z,19.67
2022-07-29T00:33:15.039Z,17.42
2022-07-29T00:35:45.031Z,19.35
2022-07-29T00:38:18.098Z,24.45
2022-07-29T00:40:46.067Z,21.37
2022-07-29T00:43:14.809Z,18.73
2022-07-29T00:45:43.155Z,17.23
2022-07-29T00:48:10.417Z,22.05
2022-07-29T00:50:37.978Z,22.37
2022-07-29T00:53:07.800Z,25.45
2022-07-29T00:55:35.137Z,18.75
2022-07-29T00:58:02.329Z,20.70
2022-07-29T01:00:30.476Z,23.30
2022-07-29T01:02:57.594Z,19.67
2022-07-29T01:05:50.342Z,20.65
2022-07-29T01:08:16.375Z,21.83
2022-07-29T01:10:46.675Z,17.67
2022-07-29T01:13:15.889Z,17.73
2022-07-29T01:15:51.863Z,18.10
2022-07-29T01:18:31.488Z,14.27
2022-07-29T01:21:23.962Z,18.10
2022-07-29T01:24:30.142Z,21.70
2022-07-29T01:27:18.204Z,20.83
2022-07-29T01:29:56.395Z,16.10
2022-07-29T01:32:29.539Z,17.52
2022-07-29T01:35:05.485Z,19.10
2022-07-29T01:37:51.369Z,18.87
2022-07-29T01:40:34.484Z,18.92
2022-07-29T01:43:06.635Z,18.60
2022-07-29T01:45:47.992Z,19.42
2022-07-29T01:48:22.429Z,17.27
2022-07-29T01:51:05.671Z,21.08
2022-07-29T01:53:57.502Z,19.50
2022-07-29T01:56:30.785Z,21.87
2022-07-29T01:58:59.613Z,21.08
2022-07-29T02:01:28.553Z,19.37
2022-07-29T02:03:57.515Z,19.08
2022-07-29T02:06:25.307Z,17.25
2022-07-29T02:08:53.585Z,15.57
2022-07-29T02:11:20.754Z,17.25
2022-07-29T02:13:48.832Z,18.87
2022-07-29T02:16:17.573Z,18.25
2022-07-29T02:18:48.864Z,17.30
2022-07-29T02:21:20.750Z,18.15
2022-07-29T02:23:50.847Z,18.52
2022-07-29T02:26:21.193Z,21.23
2022-07-29T02:28:51.143Z,13.82
2022-07-29T02:31:21.966Z,25.05
2022-07-29T02:33:50.100Z,14.80
2022-07-29T02:36:17.928Z,15.93
2022-07-29T02:38:52.189Z,18.65
2022-07-29T02:41:24.178Z,19.20
2022-07-29T02:43:57.010Z,15.75
2022-07-29T02:46:33.957Z,17.37
2022-07-29T02:49:10.300Z,13.43
2022-07-29T02:51:52.269Z,17.83
2022-07-29T02:54:33.351Z,18.87
2022-07-29T02:57:04.930Z,12.73
2022-07-29T02:59:35.458Z,16.50
2022-07-29T03:02:05.800Z,16.27
2022-07-29T03:04:35.850Z,14.93
2022-07-29T03:07:04.735Z,21.83
2022-07-29T03:09:32.760Z,14.70
2022-07-29T03:12:01.055Z,17.95
2022-07-29T03:14:28.628Z,14.00
2022-07-29T03:16:56.238Z,18.83
2022-07-29T03:19:23.528Z,18.15
2022-07-29T03:21:50.648Z,20.50
2022-07-29T03:24:36.023Z,18.05
2022-07-29T03:27:04.460Z,18.02
2022-07-29T03:29:33.680Z,17.17
2022-07-29T03:32:07.933Z,15.93
2022-07-29T03:34:35.997Z,19.12
2022-07-29T03:37:02.985Z,17.55
2022-07-29T03:39:35.133Z,18.05
2022-07-29T03:42:03.352Z,16.85
2022-07-29T03:44:31.849Z,20.35
2022-07-29T03:47:02.997Z,16.23
2022-07-29T03:49:32.072Z,18.50
2022-07-29T03:51:59.355Z,16.00
2022-07-29T03:54:26.840Z,12.85
2022-07-29T03:56:55.702Z,18.58
2022-07-29T03:59:23.616Z,17.17
2022-07-29T04:01:51.577Z,16.42
2022-07-29T04:04:19.319Z,20.17
2022-07-29T04:06:48.263Z,16.05
2022-07-29T04:09:15.825Z,14.80
2022-07-29T04:12:01.756Z,20.35
2022-07-29T04:14:30.781Z,16.37
2022-07-29T04:16:57.751Z,13.05
2022-07-29T04:19:24.656Z,12.95
2022-07-29T04:21:52.422Z,14.73
2022-07-29T04:24:19.839Z,17.20
2022-07-29T04:26:48.023Z,13.30
2022-07-29T04:29:15.512Z,13.93
2022-07-29T04:31:43.379Z,13.55
2022-07-29T04:34:10.829Z,10.77
2022-07-29T04:36:37.860Z,13.62
2022-07-29T04:39:05.677Z,13.55
2022-07-29T04:41:33.683Z,18.30
2022-07-29T04:44:07.144Z,15.57
2022-07-29T04:46:34.639Z,14.20
2022-07-29T04:49:02.015Z,12.18
2022-07-29T04:51:29.022Z,11.68
2022-07-29T04:53:55.951Z,12.82
2022-07-29T04:56:23.044Z,14.38
2022-07-29T04:58:49.987Z,15.38
2022-07-29T05:01:17.035Z,17.50
2022-07-29T05:03:44.100Z,15.00
2022-07-29T05:06:11.115Z,14.55
2022-07-29T05:08:38.656Z,17.27
2022-07-29T05:11:12.095Z,15.57
2022-07-29T05:13:45.939Z,16.37
2022-07-29T05:16:15.017Z,14.80
2022-07-29T05:18:43.297Z,13.75
2022-07-29T05:21:10.485Z,12.40
2022-07-29T05:23:37.585Z,13.50
2022-07-29T05:26:04.603Z,12.52
2022-07-29T05:28:36.204Z,13.77
2022-07-29T05:31:03.408Z,13.60
2022-07-29T05:33:34.664Z,13.77
2022-07-29T05:36:07.686Z,14.87
2022-07-29T05:38:36.552Z,12.43
2022-07-29T05:41:03.978Z,18.02
2022-07-29T05:43:31.531Z,12.85
2022-07-29T05:45:58.978Z,13.05
2022-07-29T05:48:26.488Z,10.27
2022-07-29T05:50:53.577Z,11.52
2022-07-29T05:53:21.088Z,11.50
2022-07-29T05:55:51.685Z,11.95
2022-07-29T05:58:18.808Z,11.20
2022-07-29T06:00:46.000Z,11.85
2022-07-29T06:03:13.411Z,14.82
2022-07-29T06:05:40.589Z,16.10
2022-07-29T06:08:08.365Z,17.10
2022-07-29T06:10:38.475Z,12.65
2022-07-29T06:13:05.678Z,16.50
2022-07-29T06:15:32.787Z,15.07
2022-07-29T06:18:01.705Z,15.10
2022-07-29T06:20:31.612Z,12.63
2022-07-29T06:22:59.644Z,16.20
2022-07-29T06:25:27.523Z,12.00
2022-07-29T06:27:54.741Z,9.48
2022-07-29T06:30:21.692Z,12.20
2022-07-29T06:32:49.103Z,12.75
2022-07-29T06:38:25.079Z,13.62
2022-07-29T06:41:06.918Z,10.50
2022-07-29T06:43:42.681Z,13.50
2022-07-29T06:46:20.177Z,13.38
2022-07-29T06:48:48.573Z,13.98
2022-07-29T06:51:17.377Z,12.27
2022-07-29T06:54:01.837Z,13.00
2022-07-29T06:56:38.347Z,11.07
2022-07-29T06:59:08.437Z,10.40
2022-07-29T07:01:36.515Z,10.10
2022-07-29T07:04:03.975Z,12.65
2022-07-29T07:06:31.020Z,10.65
2022-07-29T07:08:57.995Z,12.95
2022-07-29T07:11:25.155Z,13.45
2022-07-29T07:13:52.206Z,14.87
2022-07-29T07:16:19.483Z,12.25
2022-07-29T07:18:46.660Z,13.23
2022-07-29T07:21:19.245Z,15.85
2022-07-29T07:23:47.258Z,12.50
2022-07-29T07:26:14.777Z,12.43
2022-07-29T07:28:41.737Z,11.77
2022-07-29T07:31:08.904Z,15.10
2022-07-29T07:33:36.000Z,13.20
2022-07-29T07:36:03.032Z,11.30
2022-07-29T07:38:30.049Z,13.30
2022-07-29T07:40:57.031Z,15.02
2022-07-29T07:43:24.071Z,13.90
2022-07-29T07:45:51.209Z,10.57
2022-07-29T07:48:18.242Z,12.32
2022-07-29T07:50:45.571Z,11.73
2022-07-29T07:53:13.028Z,8.48
2022-07-29T07:58:30.720Z,10.65
2022-07-29T08:00:57.778Z,9.25
2022-07-29T08:03:24.854Z,9.32
2022-07-29T08:05:52.969Z,11.75
2022-07-29T08:08:20.062Z,10.55
2022-07-29T08:10:53.250Z,9.93
2022-07-29T08:13:29.303Z,7.47
2022-07-29T08:16:01.154Z,10.93
2022-07-29T08:18:32.459Z,6.10
2022-07-29T08:20:59.789Z,9.27
2022-07-29T08:23:32.862Z,10.95
2022-07-29T08:26:14.158Z,9.50
2022-07-29T08:28:46.621Z,8.00
2022-07-29T08:31:15.049Z,7.32
2022-07-29T08:33:42.274Z,6.68
2022-07-29T08:36:09.362Z,9.13
2022-07-29T08:38:36.366Z,7.25
2022-07-29T08:41:03.735Z,7.28
2022-07-29T08:43:30.686Z,5.95
2022-07-29T08:45:57.836Z,9.02
2022-07-29T08:48:25.826Z,5.85
2022-07-29T08:50:57.316Z,6.10
2022-07-29T08:53:27.863Z,6.95
2022-07-29T08:55:55.696Z,6.47
2022-07-29T08:58:24.595Z,8.20
2022-07-29T09:00:58.107Z,6.07
2022-07-29T09:03:28.541Z,5.15
2022-07-29T09:05:55.831Z,6.43
2022-07-29T09:08:22.971Z,4.90
2022-07-29T09:10:50.422Z,4.30
2022-07-29T09:13:17.455Z,6.22
2022-07-29T09:15:44.871Z,8.18
2022-07-29T09:18:20.638Z,4.62
2022-07-29T09:21:16.601Z,2.80
2022-07-29T09:24:01.702Z,5.57
2022-07-29T09:26:32.911Z,4.37
2022-07-29T09:29:00.827Z,3.03
2022-07-29T09:31:36.077Z,2.67
2022-07-29T09:34:03.650Z,3.40
2022-07-29T09:36:30.807Z,5.12
2022-07-29T09:39:02.969Z,4.03
2022-07-29T09:41:30.862Z,2.62
2022-07-29T09:44:01.395Z,2.53
2022-07-29T09:46:28.480Z,4.78
2022-07-29T09:49:15.331Z,3.05
2022-07-29T09:51:42.457Z,4.15
2022-07-29T09:54:26.917Z,2.80
2022-07-29T09:56:55.166Z,3.90
2022-07-29T09:59:25.392Z,2.85
2022-07-29T10:01:52.766Z,2.80
2022-07-29T10:04:20.929Z,5.07
2022-07-29T10:07:04.635Z,3.20
2022-07-29T10:09:33.142Z,3.08
2022-07-29T10:12:14.816Z,2.55
2022-07-29T10:14:43.268Z,3.37
2022-07-29T10:17:11.333Z,5.20
2022-07-29T10:19:39.771Z,3.47
2022-07-29T10:22:09.590Z,3.87
2022-07-29T10:24:38.598Z,2.25
2022-07-29T10:27:08.663Z,2.92
2022-07-29T10:29:36.837Z,2.80
2022-07-29T10:32:27.226Z,4.93
2022-07-29T10:35:20.220Z,3.30
2022-07-29T10:38:25.061Z,2.58
2022-07-29T10:41:11.000Z,2.83
2022-07-29T10:43:43.113Z,3.17
2022-07-29T10:46:11.658Z,3.33
2022-07-29T10:49:11.473Z,2.03
2022-07-29T10:51:51.680Z,4.32
2022-07-29T10:54:42.258Z,1.50
2022-07-29T10:57:54.418Z,4.40
2022-07-29T11:03:04.706Z,1.70
2022-07-29T11:05:59.924Z,3.58
2022-07-29T11:08:27.909Z,2.85
2022-07-29T11:11:22.187Z,3.78
2022-07-29T11:13:52.410Z,2.42
2022-07-29T11:16:25.149Z,1.48
2022-07-29T11:19:14.809Z,2.15
2022-07-29T11:21:55.087Z,2.67
2022-07-29T11:24:33.148Z,2.72
2022-07-29T11:27:11.329Z,2.60
2022-07-29T11:30:01.288Z,1.45
2022-07-29T11:32:44.651Z,1.65
2022-07-29T11:35:37.353Z,2.12
2022-07-29T11:38:31.906Z,1.73
2022-07-29T11:41:30.199Z,3.17
2022-07-29T11:46:53.914Z,1.98
2022-07-29T11:49:31.982Z,3.00
2022-07-29T11:52:04.139Z,1.30
2022-07-29T11:54:57.276Z,2.45
2022-07-29T11:57:36.698Z,1.30
2022-07-29T12:00:12.237Z,2.50
2022-07-29T12:02:43.274Z,3.20
2022-07-29T12:05:12.152Z,2.20
2022-07-29T12:07:01.822Z,1.42
2022-07-29T12:07:41.206Z,3.72
2022-07-29T12:10:29.580Z,1.23
2022-07-29T12:12:57.690Z,2.53
2022-07-29T12:15:45.759Z,1.58
2022-07-29T12:18:16.160Z,3.15
2022-07-29T12:20:46.067Z,2.55
2022-07-29T12:23:13.943Z,3.47
2022-07-29T12:25:44.746Z,1.58
2022-07-29T12:28:26.808Z,1.27
2022-07-29T12:30:55.012Z,2.03
2022-07-29T12:33:23.697Z,1.35
2022-07-29T12:36:06.609Z,1.80
2022-07-29T12:38:35.931Z,3.37
2022-07-29T12:41:04.491Z,3.62
2022-07-29T12:43:32.223Z,1.40
2022-07-29T12:46:12.194Z,1.65
2022-07-29T12:48:41.919Z,2.42
2022-07-29T12:51:10.131Z,1.60
2022-07-29T12:53:38.087Z,1.92
2022-07-29T12:56:20.645Z,2.62
2022-07-29T12:58:51.161Z,1.70
2022-07-29T13:01:20.600Z,1.85
2022-07-29T13:04:03.796Z,2.75
2022-07-29T13:06:36.082Z,2.70
2022-07-29T13:09:39.720Z,2.15
2022-07-29T13:12:12.033Z,2.00
2022-07-29T13:14:47.998Z,2.70
2022-07-29T13:17:32.745Z,1.73
2022-07-29T13:20:15.331Z,1.40
2022-07-29T13:22:46.231Z,3.60
2022-07-29T13:25:13.316Z,1.23
2022-07-29T13:27:45.589Z,1.25
2022-07-29T13:30:12.995Z,1.52
2022-07-29T13:32:40.044Z,2.42
2022-07-29T13:35:09.305Z,2.60
2022-07-29T13:37:39.631Z,1.92
2022-07-29T13:40:08.976Z,1.48
2022-07-29T13:42:36.435Z,2.35
2022-07-29T13:45:05.539Z,3.15
2022-07-29T13:47:33.421Z,3.87
2022-07-29T13:50:06.302Z,2.25
2022-07-29T13:52:34.572Z,2.78
2022-07-29T13:55:01.785Z,3.08
2022-07-29T13:57:30.567Z,2.75
2022-07-29T13:59:58.141Z,2.20
2022-07-29T14:02:26.165Z,4.55
2022-07-29T14:04:54.969Z,3.03
2022-07-29T14:07:23.153Z,2.80
2022-07-29T14:09:50.194Z,3.00
2022-07-29T14:12:17.216Z,5.15
2022-07-29T14:14:44.633Z,4.57
2022-07-29T14:17:14.969Z,3.78
2022-07-29T14:19:42.142Z,1.87
2022-07-29T14:22:09.999Z,2.15
2022-07-29T14:24:38.592Z,2.50
2022-07-29T14:27:09.107Z,2.85
2022-07-29T14:29:38.100Z,2.35
2022-07-29T14:32:10.149Z,3.53
2022-07-29T14:34:38.073Z,2.40
2022-07-29T14:37:09.541Z,3.67
2022-07-29T14:39:43.569Z,5.22
2022-07-29T14:42:12.649Z,2.92
2022-07-29T14:44:42.399Z,3.17
2022-07-29T14:47:10.120Z,2.58
2022-07-29T14:49:37.118Z,3.97
2022-07-29T14:52:04.946Z,2.97
2022-07-29T14:54:31.897Z,3.42
2022-07-29T14:56:59.093Z,3.92
2022-07-29T14:59:27.197Z,3.58
2022-07-29T15:01:54.420Z,5.18
2022-07-29T15:04:21.826Z,3.75
2022-07-29T15:06:49.281Z,2.45
2022-07-29T15:09:16.375Z,2.92
2022-07-29T15:11:43.344Z,2.28
2022-07-29T15:14:10.480Z,5.97
2022-07-29T15:16:38.669Z,3.42
2022-07-29T15:19:06.120Z,3.28
2022-07-29T15:21:33.228Z,2.97
2022-07-29T15:24:00.187Z,7.87
2022-07-29T15:26:27.285Z,5.05
2022-07-29T15:28:54.338Z,4.82
2022-07-29T15:31:21.402Z,4.43
2022-07-29T15:33:48.394Z,6.47
2022-07-29T15:36:35.653Z,3.60
2022-07-29T15:39:02.439Z,5.47
2022-07-29T15:41:29.623Z,4.25
2022-07-29T15:43:57.372Z,5.25
2022-07-29T15:46:42.930Z,4.80
2022-07-29T15:49:10.053Z,3.62
2022-07-29T15:51:37.318Z,5.03
2022-07-29T15:54:05.404Z,3.33
2022-07-29T15:56:32.484Z,6.72
2022-07-29T15:58:59.485Z,4.75
2022-07-29T16:01:28.115Z,3.12
2022-07-29T16:03:55.286Z,5.75
2022-07-29T16:06:22.427Z,3.97
2022-07-29T16:08:49.435Z,7.72
2022-07-29T16:11:16.516Z,7.90
2022-07-29T16:13:43.515Z,6.15
2022-07-29T16:16:10.823Z,6.68
2022-07-29T16:18:37.848Z,4.28
2022-07-29T16:21:04.875Z,6.80
2022-07-29T16:23:32.328Z,4.55
2022-07-29T16:26:00.787Z,4.05
2022-07-29T16:28:29.311Z,6.85
2022-07-29T16:30:57.250Z,4.60
2022-07-29T16:33:24.478Z,7.57
2022-07-29T16:35:52.186Z,4.82
2022-07-29T16:38:19.498Z,4.20
2022-07-29T16:40:46.659Z,6.47
2022-07-29T16:43:14.164Z,4.07
2022-07-29T16:45:45.256Z,6.10
2022-07-29T16:48:18.019Z,5.32
2022-07-29T16:50:45.968Z,6.55
2022-07-29T16:53:13.038Z,4.03
2022-07-29T16:55:42.382Z,5.45
2022-07-29T16:58:10.188Z,8.10
2022-07-29T17:00:37.283Z,6.22
2022-07-29T17:03:05.561Z,5.55
2022-07-29T17:05:52.538Z,4.53
2022-07-29T17:08:20.231Z,3.33
2022-07-29T17:10:47.619Z,4.78
2022-07-29T17:13:14.672Z,5.25
2022-07-29T17:15:44.708Z,4.80
2022-07-29T17:18:12.796Z,5.15
2022-07-29T17:20:42.376Z,4.35
2022-07-29T17:23:09.582Z,4.00
2022-07-29T17:25:36.650Z,5.00
2022-07-29T17:28:03.759Z,4.72
2022-07-29T17:30:30.953Z,4.80
2022-07-29T17:32:57.952Z,4.80
2022-07-29T17:35:43.380Z,3.87
2022-07-29T17:38:10.321Z,4.30
2022-07-29T17:40:37.594Z,3.87
2022-07-29T17:43:05.085Z,4.00
2022-07-29T17:45:49.686Z,5.12
2022-07-29T17:48:18.928Z,5.95
2022-07-29T17:50:47.270Z,3.55
2022-07-29T17:53:16.620Z,5.20
2022-07-29T17:55:45.991Z,3.47
2022-07-29T17:58:13.301Z,3.50
2022-07-29T18:00:40.860Z,2.53
2022-07-29T18:03:08.080Z,4.28
2022-07-29T18:05:35.540Z,4.57
2022-07-29T18:08:02.626Z,3.95
2022-07-29T18:10:30.382Z,5.30
2022-07-29T18:12:57.515Z,7.32
2022-07-29T18:15:24.483Z,4.85
2022-07-29T18:17:57.063Z,3.35
2022-07-29T18:20:24.774Z,4.28
2022-07-29T18:22:51.748Z,5.82
2022-07-29T18:25:18.851Z,2.70
2022-07-29T18:27:45.873Z,7.47
2022-07-29T18:30:15.085Z,7.53
2022-07-29T18:32:59.111Z,5.97
2022-07-29T18:35:29.909Z,5.72
2022-07-29T18:38:00.814Z,4.28
2022-07-29T18:40:29.816Z,5.57
2022-07-29T18:42:59.811Z,5.12
2022-07-29T18:45:28.667Z,4.22
2022-07-29T18:47:56.584Z,4.12
2022-07-29T18:50:28.916Z,5.57
2022-07-29T18:52:58.665Z,5.28
2022-07-29T18:55:26.585Z,5.65
2022-07-29T18:57:56.685Z,5.70
2022-07-29T19:00:25.566Z,5.72
2022-07-29T19:02:52.994Z,7.35
2022-07-29T19:05:20.800Z,4.75
2022-07-29T19:07:47.760Z,5.85
2022-07-29T19:10:15.095Z,6.78
2022-07-29T19:12:42.520Z,9.57
2022-07-29T19:15:10.871Z,6.93
2022-07-29T19:17:38.909Z,4.70
2022-07-29T19:20:07.439Z,6.78
2022-07-29T19:22:34.661Z,7.43
2022-07-29T19:25:01.887Z,8.50
2022-07-29T19:27:28.901Z,10.10
2022-07-29T19:29:59.188Z,5.15
2022-07-29T19:32:26.665Z,5.93
2022-07-29T19:35:12.312Z,7.05
2022-07-29T19:37:39.331Z,6.95
2022-07-29T19:40:07.340Z,4.40
2022-07-29T19:42:34.365Z,7.10
2022-07-29T19:45:01.322Z,7.22
2022-07-29T19:47:28.323Z,10.32
2022-07-29T19:49:55.258Z,7.28
2022-07-29T19:52:22.232Z,5.95
2022-07-29T19:54:49.246Z,3.97
2022-07-29T19:57:16.130Z,6.68
2022-07-29T19:59:43.177Z,6.62
2022-07-29T20:02:12.471Z,4.72
2022-07-29T20:04:39.847Z,5.80
2022-07-29T20:07:07.407Z,5.45
2022-07-29T20:09:34.791Z,6.82
2022-07-29T20:12:02.023Z,7.40
2022-07-29T20:14:29.076Z,5.25
2022-07-29T20:16:55.993Z,9.30
2022-07-29T20:19:22.944Z,8.10
2022-07-29T20:21:51.485Z,10.63
2022-07-29T20:24:21.838Z,3.55
2022-07-29T20:26:49.665Z,6.68
2022-07-29T20:29:16.823Z,5.20
2022-07-29T20:31:43.997Z,10.57
2022-07-29T20:34:11.153Z,13.23
2022-07-29T20:36:38.121Z,7.40
2022-07-29T20:39:05.088Z,7.60
2022-07-29T20:41:33.900Z,4.72
2022-07-29T20:44:02.182Z,7.43
2022-07-29T20:46:29.283Z,6.28
2022-07-29T20:48:56.561Z,7.00
2022-07-29T20:51:23.679Z,7.60
2022-07-29T20:53:51.020Z,5.32
2022-07-29T20:56:18.223Z,11.35
2022-07-29T20:58:45.187Z,6.70
2022-07-29T21:01:12.288Z,4.90
2022-07-29T21:03:39.406Z,10.48
2022-07-29T21:06:08.046Z,5.03
2022-07-29T21:08:35.684Z,7.32
2022-07-29T21:11:02.678Z,8.40
2022-07-29T21:13:29.861Z,7.55
2022-07-29T21:16:04.314Z,9.75
2022-07-29T21:18:37.286Z,12.55
2022-07-29T21:21:05.613Z,5.62
2022-07-29T21:23:32.764Z,6.15
2022-07-29T21:26:00.079Z,10.88
2022-07-29T21:28:27.232Z,5.45
2022-07-29T21:30:55.824Z,7.47
2022-07-29T21:33:22.974Z,10.10
2022-07-29T21:38:37.471Z,9.23
2022-07-29T21:41:05.819Z,6.72
2022-07-29T21:43:33.079Z,9.32
2022-07-29T21:46:00.812Z,8.00
2022-07-29T21:48:29.082Z,8.75
2022-07-29T21:50:57.102Z,6.78
2022-07-29T21:53:26.873Z,9.27
2022-07-29T21:55:55.509Z,8.73
2022-07-29T21:58:23.008Z,11.98
2022-07-29T22:00:50.449Z,7.03
2022-07-29T22:03:19.940Z,5.43
2022-07-29T22:05:46.951Z,6.43
2022-07-29T22:08:13.926Z,7.78
2022-07-29T22:10:40.931Z,8.38
2022-07-29T22:13:07.904Z,8.05
2022-07-29T22:15:34.978Z,7.37
2022-07-29T22:18:02.111Z,6.85
2022-07-29T22:20:29.234Z,11.00
2022-07-29T22:22:56.326Z,5.00
2022-07-29T22:25:23.324Z,7.10
2022-07-29T22:27:50.275Z,10.25
2022-07-29T22:30:17.600Z,6.28
2022-07-29T22:32:44.644Z,7.45
2022-07-29T22:35:11.728Z,9.80
2022-07-29T22:37:39.286Z,7.70
2022-07-29T22:40:07.142Z,11.70
2022-07-29T22:42:34.777Z,8.32
2022-07-29T22:45:02.505Z,10.20
2022-07-29T22:47:46.081Z,8.02
2022-07-29T22:50:16.269Z,8.57
2022-07-29T22:52:43.230Z,6.60
2022-07-29T22:55:10.407Z,11.32
2022-07-29T22:57:37.639Z,7.80
2022-07-29T23:00:05.971Z,7.28
2022-07-29T23:02:32.975Z,6.62
2022-07-29T23:04:59.920Z,13.65
2022-07-29T23:07:26.929Z,10.75
2022-07-29T23:09:54.340Z,5.12
2022-07-29T23:12:21.403Z,6.43
2022-07-29T23:14:48.425Z,9.45
2022-07-29T23:17:15.404Z,9.95
2022-07-29T23:19:42.334Z,10.68
2022-07-29T23:22:09.439Z,8.98
2022-07-29T23:24:36.357Z,9.18
2022-07-29T23:27:03.736Z,9.90
2022-07-29T23:29:34.973Z,10.68
2022-07-29T23:32:03.627Z,8.88
2022-07-29T23:34:30.591Z,4.32
2022-07-29T23:36:57.898Z,9.23
2022-07-29T23:39:25.027Z,8.30
2022-07-29T23:41:51.999Z,6.78
2022-07-29T23:44:18.922Z,6.18
2022-07-29T23:46:45.993Z,7.78
2022-07-29T23:49:13.693Z,9.43
2022-07-29T23:51:40.671Z,10.70
2022-07-29T23:54:07.639Z,4.85
2022-07-29T23:56:34.571Z,10.70
2022-07-29T23:59:01.670Z,7.40
